createdAt,value
2019-03-19T00:00:38.269Z,101447.39
2019-03-19T00:03:59.754Z,101442.30
2019-03-19T00:07:05.872Z,101441.11
2019-03-19T00:10:22.157Z,101445.34
2019-03-19T00:13:29.324Z,101462.70
2019-03-19T00:16:36.451Z,101464.45
2019-03-19T00:19:44.615Z,101475.07
2019-03-19T00:22:51.847Z,101479.25
2019-03-19T00:25:59.027Z,101481.84
2019-03-19T00:29:06.242Z,101468.70
2019-03-19T00:32:13.378Z,101472.59
2019-03-19T00:35:20.499Z,101473.46
2019-03-19T00:38:27.933Z,101473.46
2019-03-19T00:41:35.451Z,101478.14
2019-03-19T00:44:42.680Z,101479.44
2019-03-19T00:47:49.901Z,101486.30
2019-03-19T00:50:57.040Z,101495.59
2019-03-19T00:54:04.148Z,101490.02
2019-03-19T00:57:11.360Z,101498.52
2019-03-19T01:00:18.749Z,101506.17
2019-03-19T01:03:25.878Z,101506.09
2019-03-19T01:06:33.021Z,101508.66
2019-03-19T01:09:40.152Z,101492.56
2019-03-19T01:12:46.908Z,101492.15
2019-03-19T01:15:54.021Z,101489.59
2019-03-19T01:19:01.169Z,101493.41
2019-03-19T01:22:08.665Z,101498.06
2019-03-19T01:25:15.968Z,101498.49
2019-03-19T01:28:23.111Z,101495.56
2019-03-19T01:31:30.319Z,101503.63
2019-03-19T01:34:37.839Z,101504.09
2019-03-19T01:37:44.990Z,101511.72
2019-03-19T01:40:52.314Z,101509.62
2019-03-19T01:43:59.548Z,101507.47
2019-03-19T01:47:06.755Z,101513.42
2019-03-19T01:50:14.293Z,101516.39
2019-03-19T01:53:36.844Z,101515.53
2019-03-19T01:56:44.043Z,101518.94
2019-03-19T01:59:51.270Z,101524.03
2019-03-19T02:02:58.755Z,101524.02
2019-03-19T02:06:15.285Z,101520.61
2019-03-19T02:09:22.435Z,101532.92
2019-03-19T02:12:29.765Z,101535.88
2019-03-19T02:15:36.964Z,101544.75
2019-03-19T02:18:44.099Z,101548.13
2019-03-19T02:21:51.401Z,101543.48
2019-03-19T02:24:58.537Z,101551.98
2019-03-19T02:28:05.755Z,101551.17
2019-03-19T02:31:22.451Z,101562.09
2019-03-19T02:34:29.860Z,101565.91
2019-03-19T02:37:46.414Z,101569.30
2019-03-19T02:40:53.897Z,101577.33
2019-03-19T02:44:10.401Z,101582.83
2019-03-19T02:47:17.778Z,101589.63
2019-03-19T02:50:34.374Z,101589.58
2019-03-19T02:53:41.616Z,101598.05
2019-03-19T02:56:48.752Z,101597.61
2019-03-19T02:59:55.943Z,101595.95
2019-03-19T03:03:03.200Z,101601.02
2019-03-19T03:06:10.355Z,101598.86
2019-03-19T03:09:17.586Z,101597.61
2019-03-19T03:12:24.732Z,101599.29
2019-03-19T03:15:41.563Z,101598.87
2019-03-19T03:18:48.771Z,101609.87
2019-03-19T03:21:55.906Z,101615.77
2019-03-19T03:25:03.221Z,101618.34
2019-03-19T03:28:10.364Z,101618.76
2019-03-19T03:31:17.597Z,101623.84
2019-03-19T03:34:24.718Z,101627.22
2019-03-19T03:37:31.968Z,101636.51
2019-03-19T03:40:39.271Z,101637.39
2019-03-19T03:43:45.921Z,101633.14
2019-03-19T03:46:53.231Z,101631.47
2019-03-19T03:50:00.516Z,101640.75
2019-03-19T03:53:07.738Z,101638.20
2019-03-19T03:56:14.953Z,101651.76
2019-03-19T03:59:22.266Z,101652.16
2019-03-19T04:02:29.399Z,101648.73
2019-03-19T04:05:36.627Z,101644.55
2019-03-19T04:08:43.933Z,101644.55
2019-03-19T04:11:51.213Z,101654.28
2019-03-19T04:15:09.381Z,101650.48
2019-03-19T04:18:16.657Z,101656.84
2019-03-19T04:21:23.896Z,101657.23
2019-03-19T04:24:31.254Z,101663.58
2019-03-19T04:27:47.980Z,101664.44
2019-03-19T04:30:55.115Z,101672.45
2019-03-19T04:34:02.243Z,101690.66
2019-03-19T04:37:09.642Z,101708.86
2019-03-19T04:40:16.842Z,101707.17
2019-03-19T04:43:33.574Z,101694.87
2019-03-19T04:46:50.257Z,101705.03
2019-03-19T04:49:57.394Z,101713.08
2019-03-19T04:53:04.688Z,101703.75
2019-03-19T04:56:11.839Z,101713.48
2019-03-19T04:59:19.084Z,101716.45
2019-03-19T05:02:26.328Z,101707.55
2019-03-19T05:05:33.048Z,101721.97
2019-03-19T05:08:40.244Z,101729.58
2019-03-19T05:11:47.455Z,101717.75
2019-03-19T05:14:54.889Z,101719.44
2019-03-19T05:18:02.023Z,101729.15
2019-03-19T05:21:09.156Z,101732.13
2019-03-19T05:24:14.701Z,101743.56
2019-03-19T05:27:21.981Z,101746.94
2019-03-19T05:30:29.372Z,101754.97
2019-03-19T05:33:36.603Z,101751.58
2019-03-19T05:36:43.753Z,101756.23
2019-03-19T05:39:50.996Z,101757.09
2019-03-19T05:42:58.376Z,101764.29
2019-03-19T05:46:05.519Z,101763.86
2019-03-19T05:49:22.234Z,101758.78
2019-03-19T05:52:29.539Z,101768.94
2019-03-19T05:55:46.290Z,101768.50
2019-03-19T05:58:53.459Z,101776.12
2019-03-19T06:02:00.676Z,101769.34
2019-03-19T06:05:09.626Z,101769.77
2019-03-19T06:08:26.200Z,101779.52
2019-03-19T06:11:33.406Z,101793.05
2019-03-19T06:14:40.551Z,101794.74
2019-03-19T06:17:47.860Z,101801.09
2019-03-19T06:20:55.071Z,101807.86
2019-03-19T06:24:02.536Z,101810.41
2019-03-19T06:27:19.010Z,101809.55
2019-03-19T06:30:26.348Z,101813.78
2019-03-19T06:33:43.032Z,101809.13
2019-03-19T06:36:59.725Z,101815.02
2019-03-19T06:40:08.037Z,101819.69
2019-03-19T06:43:15.064Z,101823.92
2019-03-19T06:46:22.204Z,101834.48
2019-03-19T06:49:29.331Z,101824.34
2019-03-19T06:52:36.561Z,101828.16
2019-03-19T06:55:43.695Z,101827.72
2019-03-19T06:58:50.942Z,101837.45
2019-03-19T07:01:58.579Z,101841.70
2019-03-19T07:05:06.170Z,101849.31
2019-03-19T07:08:13.267Z,101846.30
2019-03-19T07:11:20.593Z,101850.14
2019-03-19T07:14:27.785Z,101849.69
2019-03-19T07:17:34.929Z,101855.62
2019-03-19T07:20:42.168Z,101868.78
2019-03-19T07:23:49.448Z,101868.31
2019-03-19T07:26:56.665Z,101869.58
2019-03-19T07:30:15.338Z,101866.61
2019-03-19T07:33:31.765Z,101872.49
2019-03-19T07:36:48.468Z,101860.17
2019-03-19T07:39:55.608Z,101874.17
2019-03-19T07:43:02.739Z,101872.86
2019-03-19T07:46:09.880Z,101878.38
2019-03-19T07:53:15.965Z,101882.98
2019-03-19T07:56:32.465Z,101888.42
2019-03-19T07:59:39.699Z,101894.42
2019-03-19T08:02:47.090Z,101898.59
2019-03-19T08:06:03.811Z,101894.63
2019-03-19T08:09:10.952Z,101900.12
2019-03-19T08:12:17.035Z,101904.02
2019-03-19T08:15:33.465Z,101900.48
2019-03-19T08:18:50.162Z,101903.42
2019-03-19T08:21:57.300Z,101910.22
2019-03-19T08:25:05.063Z,101916.98
2019-03-19T08:28:21.348Z,101911.39
2019-03-19T08:31:28.591Z,101916.94
2019-03-19T08:34:36.403Z,101913.42
2019-03-19T08:37:43.563Z,101923.18
2019-03-19T08:40:51.106Z,101925.30
2019-03-19T08:43:58.288Z,101932.04
2019-03-19T08:47:05.518Z,101934.57
2019-03-19T08:50:14.787Z,101938.30
2019-03-19T08:53:21.932Z,101934.42
2019-03-19T08:56:29.071Z,101939.48
2019-03-19T08:59:36.304Z,101947.99
2019-03-19T09:02:43.524Z,101960.25
2019-03-19T09:05:50.946Z,101961.91
2019-03-19T09:08:58.176Z,101956.80
2019-03-19T09:12:05.455Z,101966.52
2019-03-19T09:15:22.140Z,101960.57
2019-03-19T09:18:29.457Z,101964.66
2019-03-19T09:21:46.164Z,101957.69
2019-03-19T09:25:02.940Z,101967.53
2019-03-19T09:28:19.637Z,101964.86
2019-03-19T09:31:26.772Z,101971.58
2019-03-19T09:34:34.011Z,101987.84
2019-03-19T09:37:44.837Z,101991.11
2019-03-19T09:40:50.075Z,102005.83
2019-03-19T09:43:57.305Z,102006.72
2019-03-19T09:47:04.436Z,102019.14
2019-03-19T09:50:12.546Z,102002.36
2019-03-19T09:53:19.681Z,102010.11
2019-03-19T09:56:26.833Z,102006.02
2019-03-19T09:59:34.058Z,102008.44
2019-03-19T10:02:41.204Z,102013.30
2019-03-19T10:05:48.512Z,102016.47
2019-03-19T10:08:55.758Z,102021.91
2019-03-19T10:12:02.892Z,102016.20
2019-03-19T10:15:10.287Z,102014.19
2019-03-19T10:18:17.605Z,102028.80
2019-03-19T10:21:24.739Z,102023.89
2019-03-19T10:24:31.890Z,102031.56
2019-03-19T10:27:39.006Z,102032.61
2019-03-19T10:30:46.131Z,102029.86
2019-03-19T10:33:53.391Z,102032.72
2019-03-19T10:37:00.595Z,102028.61
2019-03-19T10:40:07.858Z,102039.82
2019-03-19T10:43:15.062Z,102038.39
2019-03-19T10:46:22.279Z,102033.73
2019-03-19T10:49:29.508Z,102028.25
2019-03-19T10:52:36.792Z,102038.12
2019-03-19T10:55:43.953Z,102050.14
2019-03-19T10:58:51.183Z,102047.02
2019-03-19T11:01:58.320Z,102039.32
2019-03-19T11:05:06.311Z,102043.75
2019-03-19T11:08:22.836Z,102051.22
2019-03-19T11:11:29.958Z,102043.70
2019-03-19T11:14:37.150Z,102048.45
2019-03-19T11:17:44.285Z,102049.03
2019-03-19T11:20:51.464Z,102049.91
2019-03-19T11:23:58.581Z,102048.30
2019-03-19T11:27:05.854Z,102039.59
2019-03-19T11:30:18.310Z,102043.73
2019-03-19T11:33:35.177Z,102052.00
2019-03-19T11:36:57.735Z,102056.77
2019-03-19T11:40:10.828Z,102064.14
2019-03-19T11:43:17.964Z,102064.09
2019-03-19T11:46:25.348Z,102064.49
2019-03-19T11:49:32.579Z,102070.02
2019-03-19T11:52:40.283Z,102070.13
2019-03-19T11:55:47.491Z,102076.18
2019-03-19T11:58:54.619Z,102077.20
2019-03-19T12:02:01.841Z,102078.92
2019-03-19T12:05:09.258Z,102083.69
2019-03-19T12:08:16.392Z,102081.08
2019-03-19T12:11:23.579Z,102085.59
2019-03-19T12:14:30.712Z,102081.58
2019-03-19T12:17:37.914Z,102088.82
2019-03-19T12:20:45.057Z,102080.06
2019-03-19T12:23:52.254Z,102082.70
2019-03-19T12:26:59.477Z,102088.43
2019-03-19T12:30:07.022Z,102095.22
2019-03-19T12:33:23.600Z,102094.84
2019-03-19T12:36:30.808Z,102100.72
2019-03-19T12:39:37.942Z,102103.73
2019-03-19T12:42:44.103Z,102103.16
2019-03-19T12:45:51.340Z,102102.08
2019-03-19T12:49:07.660Z,102105.71
2019-03-19T12:52:14.883Z,102103.34
2019-03-19T12:55:31.588Z,102108.41
2019-03-19T12:58:38.841Z,102107.45
2019-03-19T13:01:45.988Z,102103.27
2019-03-19T13:04:53.566Z,102112.68
2019-03-19T13:08:09.921Z,102108.79
2019-03-19T13:11:17.178Z,102120.03
2019-03-19T13:14:24.297Z,102128.38
2019-03-19T13:17:31.509Z,102115.27
2019-03-19T13:20:38.744Z,102119.45
2019-03-19T13:23:44.343Z,102130.58
2019-03-19T13:26:51.463Z,102120.04
2019-03-19T13:29:58.782Z,102131.30
2019-03-19T13:33:06.140Z,102119.78
2019-03-19T13:36:22.765Z,102129.44
2019-03-19T13:39:29.901Z,102135.94
2019-03-19T13:42:37.135Z,102136.05
2019-03-19T13:45:44.465Z,102141.01
2019-03-19T13:48:51.588Z,102143.56
2019-03-19T13:51:58.757Z,102134.44
2019-03-19T13:55:07.162Z,102140.05
2019-03-19T13:58:14.203Z,102153.97
2019-03-19T14:01:21.440Z,102160.48
2019-03-19T14:04:28.651Z,102156.37
2019-03-19T14:07:35.859Z,102153.77
2019-03-19T14:10:43.031Z,102152.95
2019-03-19T14:13:50.256Z,102151.22
2019-03-19T14:16:57.529Z,102163.52
2019-03-19T14:20:06.231Z,102160.09
2019-03-19T14:23:13.408Z,102154.09
2019-03-19T14:26:20.561Z,102158.63
2019-03-19T14:29:27.797Z,102153.84
2019-03-19T14:32:35.091Z,102156.94
2019-03-19T14:35:42.218Z,102150.26
2019-03-19T14:38:49.458Z,102152.90
2019-03-19T14:41:56.593Z,102163.81
2019-03-19T14:45:04.169Z,102172.36
2019-03-19T14:48:11.311Z,102175.06
2019-03-19T14:51:18.675Z,102179.53
2019-03-19T14:54:25.983Z,102171.44
2019-03-19T14:57:33.283Z,102175.52
2019-03-19T15:00:40.517Z,102178.92
2019-03-19T15:03:47.654Z,102184.44
2019-03-19T15:07:04.509Z,102180.54
2019-03-19T15:10:14.023Z,102186.19
2019-03-19T15:13:21.552Z,102195.41
2019-03-19T15:16:28.683Z,102192.89
2019-03-19T15:19:35.934Z,102194.42
2019-03-19T15:22:43.261Z,102195.44
2019-03-19T15:25:50.403Z,102217.97
2019-03-19T15:28:57.540Z,102200.35
2019-03-19T15:32:04.750Z,102207.69
2019-03-19T15:35:12.203Z,102206.84
2019-03-19T15:38:19.340Z,102211.12
2019-03-19T15:41:25.442Z,102208.96
2019-03-19T15:44:41.953Z,102203.07
2019-03-19T15:47:49.237Z,102208.68
2019-03-19T15:51:05.953Z,102217.05
2019-03-19T15:54:13.178Z,102218.17
2019-03-19T15:57:20.405Z,102217.97
2019-03-19T16:00:27.530Z,102222.41
2019-03-19T16:03:34.661Z,102226.33
2019-03-19T16:06:41.896Z,102221.07
2019-03-19T16:09:49.024Z,102226.60
2019-03-19T16:12:56.235Z,102222.48
2019-03-19T16:16:02.212Z,102225.17
2019-03-19T16:19:18.720Z,102222.05
2019-03-19T16:22:25.859Z,102233.53
2019-03-19T16:25:33.087Z,102231.26
2019-03-19T16:28:40.213Z,102236.09
2019-03-19T16:31:51.244Z,102244.33
2019-03-19T16:34:56.282Z,102244.22
2019-03-19T16:38:03.611Z,102247.34
2019-03-19T16:41:10.858Z,102256.33
2019-03-19T16:44:27.513Z,102254.61
2019-03-19T16:47:34.798Z,102258.03
2019-03-19T16:50:42.089Z,102267.95
2019-03-19T16:53:58.687Z,102263.70
2019-03-19T16:57:05.978Z,102262.55
2019-03-19T17:00:15.327Z,102276.34
2019-03-19T17:03:22.443Z,102273.35
2019-03-19T17:06:38.735Z,102279.48
2019-03-19T17:09:45.883Z,102279.59
2019-03-19T17:12:51.412Z,102282.69
2019-03-19T17:15:58.725Z,102289.14
2019-03-19T17:19:05.956Z,102291.91
2019-03-19T17:22:13.084Z,102302.12
2019-03-19T17:25:20.307Z,102303.48
2019-03-19T17:28:27.619Z,102302.22
2019-03-19T17:31:34.823Z,102311.98
2019-03-19T17:34:43.512Z,102314.52
2019-03-19T17:37:50.855Z,102315.20
2019-03-19T17:41:07.475Z,102321.93
2019-03-19T17:44:24.300Z,102321.62
2019-03-19T17:47:41.109Z,102325.88
2019-03-19T17:50:58.280Z,102330.20
2019-03-19T17:54:14.574Z,102334.97
2019-03-19T17:57:21.787Z,102341.36
2019-03-19T18:00:29.600Z,102345.74
2019-03-19T18:03:39.777Z,102345.78
2019-03-19T18:06:56.381Z,102350.05
2019-03-19T18:10:04.412Z,102356.39
2019-03-19T18:13:11.636Z,102360.70
2019-03-19T18:16:18.892Z,102364.11
2019-03-19T18:19:26.031Z,102364.18
2019-03-19T18:22:33.232Z,102366.78
2019-03-19T18:25:40.431Z,102373.17
2019-03-19T18:28:47.596Z,102377.44
2019-03-19T18:31:54.810Z,102372.77
2019-03-19T18:35:02.040Z,102376.63
2019-03-19T18:38:09.558Z,102382.55
2019-03-19T18:41:16.892Z,102378.77
2019-03-19T18:44:24.144Z,102379.17
2019-03-19T18:47:31.671Z,102384.30
2019-03-19T18:50:38.799Z,102377.92
2019-03-19T18:53:46.061Z,102382.63
2019-03-19T18:56:53.231Z,102389.83
2019-03-19T19:00:00.429Z,102388.59
2019-03-19T19:03:07.676Z,102400.02
2019-03-19T19:06:14.820Z,102398.77
2019-03-19T19:09:35.128Z,102403.44
2019-03-19T19:12:42.463Z,102411.53
2019-03-19T19:15:49.606Z,102413.63
2019-03-19T19:18:56.747Z,102409.83
2019-03-19T19:22:03.884Z,102425.52
2019-03-19T19:25:12.839Z,102421.28
2019-03-19T19:28:20.012Z,102433.59
2019-03-19T19:31:36.713Z,102425.54
2019-03-19T19:34:44.019Z,102431.90
2019-03-19T19:38:03.270Z,102436.16
2019-03-19T19:41:09.769Z,102444.23
2019-03-19T19:44:26.340Z,102448.05
2019-03-19T19:47:43.223Z,102451.88
2019-03-19T19:50:59.894Z,102445.91
2019-03-19T19:54:16.597Z,102449.75
2019-03-19T19:57:23.898Z,102460.34
2019-03-19T20:00:31.095Z,102463.75
2019-03-19T20:03:47.770Z,102464.17
2019-03-19T20:06:55.005Z,102470.98
2019-03-19T20:10:02.304Z,102469.71
2019-03-19T20:13:18.955Z,102463.34
2019-03-19T20:16:26.099Z,102472.66
2019-03-19T20:19:33.325Z,102474.33
2019-03-19T20:22:40.461Z,102471.75
2019-03-19T20:25:57.346Z,102474.69
2019-03-19T20:29:04.753Z,102471.26
2019-03-19T20:32:21.450Z,102477.20
2019-03-19T20:35:38.155Z,102475.08
2019-03-19T20:38:55.124Z,102474.61
2019-03-19T20:42:11.689Z,102483.05
2019-03-19T20:45:18.889Z,102488.14
2019-03-19T20:48:26.041Z,102486.86
2019-03-19T20:51:33.231Z,102491.11
2019-03-19T20:54:40.567Z,102494.44
2019-03-19T20:57:57.414Z,102493.17
2019-03-19T21:01:04.551Z,102505.09
2019-03-19T21:04:11.679Z,102500.42
2019-03-19T21:07:18.907Z,102508.44
2019-03-19T21:10:26.307Z,102516.92
2019-03-19T21:13:34.645Z,102519.88
2019-03-19T21:16:41.912Z,102515.63
2019-03-19T21:19:49.058Z,102524.84
2019-03-19T21:22:56.378Z,102523.99
2019-03-19T21:26:03.521Z,102513.36
2019-03-19T21:29:11.102Z,102523.48
2019-03-19T21:32:27.766Z,102517.63
2019-03-19T21:35:34.924Z,102518.83
2019-03-19T21:38:51.620Z,102514.59
2019-03-19T21:41:58.758Z,102520.14
2019-03-19T21:45:05.799Z,102524.31
2019-03-19T21:48:12.982Z,102514.85
2019-03-19T21:51:20.287Z,102522.97
2019-03-19T21:54:27.568Z,102517.45
2019-03-19T21:57:34.863Z,102519.09
2019-03-19T22:00:42.469Z,102511.84
2019-03-19T22:04:02.961Z,102502.13
2019-03-19T22:07:17.170Z,102503.83
2019-03-19T22:10:24.379Z,102506.72
2019-03-19T22:13:31.505Z,102498.72
2019-03-19T22:16:38.764Z,102504.17
2019-03-19T22:19:46.207Z,102504.17
2019-03-19T22:23:02.834Z,102495.84
2019-03-19T22:26:19.528Z,102498.83
2019-03-19T22:29:26.801Z,102504.64
2019-03-19T22:32:43.691Z,102503.82
2019-03-19T22:36:01.115Z,102509.23
2019-03-19T22:39:09.223Z,102518.55
2019-03-19T22:42:16.444Z,102526.25
2019-03-19T22:45:33.133Z,102523.61
2019-03-19T22:48:40.616Z,102527.66
2019-03-19T22:51:57.037Z,102528.50
2019-03-19T22:55:04.548Z,102532.73
2019-03-19T22:58:21.022Z,102527.17
2019-03-19T23:01:28.227Z,102528.86
2019-03-19T23:04:35.454Z,102532.22
2019-03-19T23:07:42.682Z,102532.66
2019-03-19T23:10:49.891Z,102528.80
2019-03-19T23:13:57.218Z,102526.75
2019-03-19T23:17:13.940Z,102523.00
2019-03-19T23:20:30.661Z,102525.89
2019-03-19T23:23:47.474Z,102532.72
2019-03-19T23:27:04.332Z,102536.45
2019-03-19T23:30:12.045Z,102536.20
2019-03-19T23:33:19.452Z,102539.30
2019-03-19T23:36:26.623Z,102534.91
2019-03-19T23:39:33.772Z,102540.05
2019-03-19T23:42:41.081Z,102533.65
2019-03-19T23:45:47.714Z,102536.77
2019-03-19T23:49:04.189Z,102538.80
2019-03-19T23:52:11.491Z,102539.05
2019-03-19T23:55:28.172Z,102541.28
2019-03-19T23:58:35.384Z,102541.61
